This is the latest recevied weather packets stored in our database for station/object N7WLC. If no packets are shown the sender has not sent any weather packets the latest 10 day(s).
| Time | Temp. | Humidity | Pressure | Rain* | Wind** | Luminosity | Snow |
|---|---|---|---|---|---|---|---|
| 1777875505 | 12.78° C | 83% | 1015 hPa | 0 mm | 0 m/s | - | - |
| 1777873707 | 12.78° C | 83% | 1014.8 hPa | 0 mm | 0 m/s | - | - |
| 1777871906 | 12.78° C | 81% | 1015.2 hPa | 0 mm | 0 m/s | - | - |
| 1777870105 | 13.33° C | 79% | 1014.9 hPa | 0 mm | 0 m/s | - | - |
| 1777868306 | 13.33° C | 78% | 1014.5 hPa | 0 mm | 0 m/s | - | - |
| 1777866506 | 13.89° C | 76% | 1014.3 hPa | 0 mm | 0 m/s | - | - |
| 1777864705 | 13.89° C | 79% | 1013.9 hPa | 0 mm | 0 m/s | - | - |
| 1777862905 | 13.89° C | 77% | 1013.9 hPa | 0 mm | 0 m/s | - | - |
| 1777861106 | 14.44° C | 75% | 1013.5 hPa | 0 mm | 0 m/s | - | - |
| 1777859305 | 15° C | 74% | 1013.4 hPa | 0 mm | 0 m/s | - | - |
| 1777857505 | 15.56° C | 65% | 1013.2 hPa | 0 mm | 0 m/s | - | - |
| 1777855706 | 17.22° C | 59% | 1013 hPa | 0 mm | 0 m/s | - | - |
| 1777853905 | 17.78° C | 60% | 1013.1 hPa | 0 mm | 0 m/s | - | - |
| 1777852105 | 18.33° C | 57% | 1012.6 hPa | 0 mm | 0 m/s | - | - |
| 1777850306 | 18.33° C | 55% | 1012.8 hPa | 0 mm | 0.45 m/s, 221° | - | - |
| 1777848506 | 17.78° C | 58% | 1013.1 hPa | 0 mm | 0 m/s | - | - |
| 1777846705 | 17.78° C | 59% | 1013.6 hPa | 0 mm | 0.45 m/s, 256° | - | - |
| 1777844906 | 17.78° C | 59% | 1013.9 hPa | 0 mm | 0.89 m/s, 253° | - | - |
| 1777843106 | 16.67° C | 62% | 1013.8 hPa | 0 mm | 0 m/s | - | - |
| 1777841305 | 16.67° C | 65% | 1014 hPa | 0 mm | 0 m/s | - | - |
| 1777839505 | 16.67° C | 67% | 1014 hPa | 0 mm | 0.89 m/s, 243° | - | - |
| 1777837705 | 17.22° C | 67% | 1014.2 hPa | 0 mm | 0 m/s | - | - |
| 1777835905 | 16.67° C | 67% | 1014.1 hPa | 0 mm | 0 m/s | - | - |
| 1777834104 | 17.22° C | 62% | 1014.3 hPa | 0 mm | 0.89 m/s, 196° | - | - |
| 1777832305 | 16.67° C | 67% | 1014.6 hPa | 0 mm | 0 m/s | - | - |
* Rain latest hour (hover to see other rain measurements)
** Current wind speed in m/s (hover to see current wind gust speed)